Thunder radar more information blitzortung!


Radar de pluja more information rain snow radar


Visita la nostra xarxa de llocs de meteo:

Template documentation
and downloads

And another site



No particular awareness of the weather is required.    There are no Weather-warnings

Pagina Historial Weather Underground text

Diari Resum Juliol 10, 2017 Unitats:  Tant    Imperial   Mètric
« Previous Dia
SegĂźent Dia »
Diari Setmana Mensual Anual Personalitzada
  Maxima: Minima: Media:
Temperatura: 91.8 °F /  33.2 °C 67.6 °F /  19.8 °C 80.1 °F /  26.7 °C
Punt de rosada: 66 °F /  18.9 °C 54.3 °F /  12.4 °C 60.3 °F /  15.7 °C
Humitat: 83 % 33 % 53 %
Wind Speed: 16.1 mph /  25.9 km/h - 4.4 mph /  7.1 km/h
RĂ fegues de vent: 16.1 mph /  25.9 km/h - -
Vent:- - SE
Pression baro: 30 in /  1014.8 hPa 29.8 in /  1010.0 hPa -
Precipitacions: 0 in /  0.0 mm    
Historical Graphs
 
 
Dades de taula per Juliol 10, 2017
Temps Temperatura Punt de rosada Pression baro Vent Wind Speed RĂ fegues de vent Humitat Rainfall Rate (Hourly)
00:00 68.7 °F /  20.4 °C 63.3 °F /  17.4 °C 29.9 in /  1011.7 hPa Calm   2 mph /  3.2 km/h 83 % 0 in /  0.0 mm
00:04 72.9 °F /  22.7 °C 64.8 °F /  18.2 °C 29.9 in /  1011.7 hPa ENE 2.3 mph /  3.7 km/h 2.3 mph /  3.7 km/h 76 % 0 in /  0.0 mm
00:10 68.7 °F /  20.4 °C 63.3 °F /  17.4 °C 29.9 in /  1011.7 hPa NE 1 mph /  1.6 km/h 2 mph /  3.2 km/h 83 % 0 in /  0.0 mm
00:20 68.5 °F /  20.3 °C 63.1 °F /  17.3 °C 29.9 in /  1011.7 hPa NE 1 mph /  1.6 km/h 2 mph /  3.2 km/h 83 % 0 in /  0.0 mm
00:30 68.4 °F /  20.2 °C 63 °F /  17.2 °C 29.9 in /  1011.7 hPa NE 1 mph /  1.6 km/h 3 mph /  4.8 km/h 83 % 0 in /  0.0 mm
00:40 68.4 °F /  20.2 °C 63 °F /  17.2 °C 29.9 in /  1011.7 hPa NE 2 mph /  3.2 km/h 3 mph /  4.8 km/h 83 % 0 in /  0.0 mm
00:50 68.2 °F /  20.1 °C 62.8 °F /  17.1 °C 29.9 in /  1011.7 hPa Calm   1 mph /  1.6 km/h 83 % 0 in /  0.0 mm
01:00 68 °F /  20.0 °C 62.6 °F /  17.0 °C 29.9 in /  1011.7 hPa Calm   2 mph /  3.2 km/h 83 % 0 in /  0.0 mm
01:10 68 °F /  20.0 °C 62.6 °F /  17.0 °C 29.9 in /  1011.7 hPa ENE 2 mph /  3.2 km/h 2 mph /  3.2 km/h 83 % 0 in /  0.0 mm
01:20 68 °F /  20.0 °C 62.2 °F /  16.8 °C 29.9 in /  1011.7 hPa NE 2 mph /  3.2 km/h 3 mph /  4.8 km/h 82 % 0 in /  0.0 mm
01:30 68 °F /  20.0 °C 62.2 °F /  16.8 °C 29.9 in /  1011.7 hPa North 1 mph /  1.6 km/h 3 mph /  4.8 km/h 82 % 0 in /  0.0 mm
01:40 67.8 °F /  19.9 °C 62.4 °F /  16.9 °C 29.9 in /  1011.7 hPa Calm   2 mph /  3.2 km/h 83 % 0 in /  0.0 mm
01:50 67.6 °F /  19.8 °C 62.2 °F /  16.8 °C 29.9 in /  1011.7 hPa NNE 1 mph /  1.6 km/h 2 mph /  3.2 km/h 83 % 0 in /  0.0 mm
02:00 67.6 °F /  19.8 °C 62.2 °F /  16.8 °C 29.9 in /  1011.7 hPa ENE 1 mph /  1.6 km/h 2 mph /  3.2 km/h 83 % 0 in /  0.0 mm
02:10 67.8 °F /  19.9 °C 62.4 °F /  16.9 °C 29.9 in /  1011.7 hPa NE 1 mph /  1.6 km/h 3 mph /  4.8 km/h 83 % 0 in /  0.0 mm
02:20 68 °F /  20.0 °C 62.2 °F /  16.8 °C 29.9 in /  1011.7 hPa NE 1 mph /  1.6 km/h 2 mph /  3.2 km/h 82 % 0 in /  0.0 mm
02:30 68 °F /  20.0 °C 62.2 °F /  16.8 °C 29.9 in /  1011.7 hPa NE 1 mph /  1.6 km/h 2 mph /  3.2 km/h 82 % 0 in /  0.0 mm
02:40 68.4 °F /  20.2 °C 62.6 °F /  17.0 °C 29.9 in /  1011.7 hPa NE 1 mph /  1.6 km/h 2 mph /  3.2 km/h 82 % 0 in /  0.0 mm
02:50 69.1 °F /  20.6 °C 63.3 °F /  17.4 °C 29.9 in /  1011.7 hPa NE 1 mph /  1.6 km/h 3 mph /  4.8 km/h 82 % 0 in /  0.0 mm
03:00 69.8 °F /  21.0 °C 63.3 °F /  17.4 °C 29.9 in /  1011.7 hPa NE 1 mph /  1.6 km/h 1 mph /  1.6 km/h 80 % 0 in /  0.0 mm
03:10 70 °F /  21.1 °C 63.1 °F /  17.3 °C 29.9 in /  1011.7 hPa NE 2 mph /  3.2 km/h 3 mph /  4.8 km/h 79 % 0 in /  0.0 mm
03:20 71.6 °F /  22.0 °C 64.4 °F /  18.0 °C 29.9 in /  1011.7 hPa NNE 1 mph /  1.6 km/h 3 mph /  4.8 km/h 78 % 0 in /  0.0 mm
03:30 71.6 °F /  22.0 °C 63.7 °F /  17.6 °C 29.9 in /  1011.7 hPa NE 3 mph /  4.8 km/h 4 mph /  6.4 km/h 76 % 0 in /  0.0 mm
03:40 71.8 °F /  22.1 °C 63.9 °F /  17.7 °C 29.9 in /  1011.7 hPa NE 3 mph /  4.8 km/h 5 mph /  8.0 km/h 76 % 0 in /  0.0 mm
03:50 73.9 °F /  23.3 °C 64.8 °F /  18.2 °C 29.9 in /  1011.7 hPa NNE 2 mph /  3.2 km/h 5 mph /  8.0 km/h 73 % 0 in /  0.0 mm
04:00 73.2 °F /  22.9 °C 63.7 °F /  17.6 °C 29.9 in /  1011.7 hPa NNE 5 mph /  8.0 km/h 5 mph /  8.0 km/h 72 % 0 in /  0.0 mm
04:10 73.2 °F /  22.9 °C 64 °F /  17.8 °C 29.9 in /  1011.7 hPa NNE 1 mph /  1.6 km/h 3 mph /  4.8 km/h 73 % 0 in /  0.0 mm
04:20 73.4 °F /  23.0 °C 63.9 °F /  17.7 °C 29.9 in /  1011.7 hPa NNE 3 mph /  4.8 km/h 4 mph /  6.4 km/h 72 % 0 in /  0.0 mm
04:30 73.6 °F /  23.1 °C 64 °F /  17.8 °C 29.9 in /  1012.8 hPa NNE 1 mph /  1.6 km/h 2 mph /  3.2 km/h 72 % 0 in /  0.0 mm
04:40 74.3 °F /  23.5 °C 63.9 °F /  17.7 °C 29.9 in /  1012.8 hPa NNE 1 mph /  1.6 km/h 2 mph /  3.2 km/h 70 % 0 in /  0.0 mm
04:50 74.7 °F /  23.7 °C 64.2 °F /  17.9 °C 29.9 in /  1012.8 hPa Calm   2 mph /  3.2 km/h 70 % 0 in /  0.0 mm
05:00 74.8 °F /  23.8 °C 64.4 °F /  18.0 °C 29.9 in /  1012.8 hPa West 1 mph /  1.6 km/h 1 mph /  1.6 km/h 70 % 0 in /  0.0 mm
10:03 75.2 °F /  24.0 °C 64.2 °F /  17.9 °C 29.9 in /  1012.8 hPa ESE 2.3 mph /  3.7 km/h   69 % 0 in /  0.0 mm
10:08 75.7 °F /  24.3 °C 64.4 °F /  18.0 °C 29.9 in /  1012.8 hPa SW 1.6 mph /  2.6 km/h 1.6 mph /  2.6 km/h 68 % 0 in /  0.0 mm
10:13 76.3 °F /  24.6 °C 64.9 °F /  18.3 °C 29.9 in /  1012.8 hPa SW 2.3 mph /  3.7 km/h 2.3 mph /  3.7 km/h 68 % 0 in /  0.0 mm
10:18 76.6 °F /  24.8 °C 65.3 °F /  18.5 °C 29.9 in /  1012.8 hPa WSW 2.3 mph /  3.7 km/h 2.3 mph /  3.7 km/h 68 % 0 in /  0.0 mm
10:23 75.9 °F /  24.4 °C 64.6 °F /  18.1 °C 29.9 in /  1012.8 hPa WSW 2.4 mph /  3.9 km/h 2.4 mph /  3.9 km/h 68 % 0 in /  0.0 mm
10:28 76.5 °F /  24.7 °C 65.1 °F /  18.4 °C 29.9 in /  1012.8 hPa SE 3.8 mph /  6.1 km/h 3.8 mph /  6.1 km/h 68 % 0 in /  0.0 mm
10:33 76.8 °F /  24.9 °C 65.5 °F /  18.6 °C 29.9 in /  1012.8 hPa SE 2.6 mph /  4.2 km/h 2.6 mph /  4.2 km/h 68 % 0 in /  0.0 mm
10:38 77.4 °F /  25.2 °C 65.1 °F /  18.4 °C 29.9 in /  1012.8 hPa SE 4.6 mph /  7.4 km/h 4.6 mph /  7.4 km/h 66 % 0 in /  0.0 mm
10:43 77.4 °F /  25.2 °C 64.8 °F /  18.2 °C 29.9 in /  1012.8 hPa ESE 3.5 mph /  5.6 km/h 3.5 mph /  5.6 km/h 65 % 0 in /  0.0 mm
10:48 77.7 °F /  25.4 °C 64.6 °F /  18.1 °C 29.9 in /  1012.8 hPa NNE 5.8 mph /  9.3 km/h 5.8 mph /  9.3 km/h 64 % 0 in /  0.0 mm
10:53 78.4 °F /  25.8 °C 65.7 °F /  18.7 °C 29.9 in /  1012.8 hPa ENE 4.9 mph /  7.9 km/h 4.9 mph /  7.9 km/h 65 % 0 in /  0.0 mm
10:58 78.8 °F /  26.0 °C 65.7 °F /  18.7 °C 29.9 in /  1012.8 hPa ENE 3.8 mph /  6.1 km/h 3.8 mph /  6.1 km/h 64 % 0 in /  0.0 mm
11:03 78.6 °F /  25.9 °C 64.9 °F /  18.3 °C 29.9 in /  1012.8 hPa WNW 5.8 mph /  9.3 km/h 5.8 mph /  9.3 km/h 63 % 0 in /  0.0 mm
11:08 79 °F /  26.1 °C 64.8 °F /  18.2 °C 29.9 in /  1012.8 hPa ENE 4.6 mph /  7.4 km/h 4.6 mph /  7.4 km/h 62 % 0 in /  0.0 mm
11:13 79.7 °F /  26.5 °C 65.5 °F /  18.6 °C 29.9 in /  1012.8 hPa West 2.3 mph /  3.7 km/h 2.4 mph /  3.9 km/h 62 % 0 in /  0.0 mm
11:18 80.4 °F /  26.9 °C 65.7 °F /  18.7 °C 29.9 in /  1012.8 hPa NE 2.9 mph /  4.7 km/h 2.9 mph /  4.7 km/h 61 % 0 in /  0.0 mm
11:23 80.4 °F /  26.9 °C 65.3 °F /  18.5 °C 29.9 in /  1012.8 hPa South 3.5 mph /  5.6 km/h 3.6 mph /  5.8 km/h 60 % 0 in /  0.0 mm
11:28 80.8 °F /  27.1 °C 65.1 °F /  18.4 °C 29.9 in /  1012.8 hPa ESE 2.4 mph /  3.9 km/h 2.4 mph /  3.9 km/h 59 % 0 in /  0.0 mm
11:33 81.5 °F /  27.5 °C 65.8 °F /  18.8 °C 29.9 in /  1012.8 hPa SSW 3.5 mph /  5.6 km/h 3.5 mph /  5.6 km/h 59 % 0 in /  0.0 mm
11:38 81.9 °F /  27.7 °C 66 °F /  18.9 °C 29.9 in /  1011.7 hPa ENE 2.4 mph /  3.9 km/h 2.4 mph /  3.9 km/h 59 % 0 in /  0.0 mm
11:43 80.6 °F /  27.0 °C 64.9 °F /  18.3 °C 29.9 in /  1011.7 hPa ENE 5.8 mph /  9.3 km/h 5.8 mph /  9.3 km/h 59 % 0 in /  0.0 mm
11:48 80.8 °F /  27.1 °C 65.1 °F /  18.4 °C 29.9 in /  1011.7 hPa ENE 5.8 mph /  9.3 km/h 5.8 mph /  9.3 km/h 59 % 0 in /  0.0 mm
11:53 81.5 °F /  27.5 °C 65.3 °F /  18.5 °C 29.9 in /  1011.7 hPa SE 8.1 mph /  13.0 km/h 8.1 mph /  13.0 km/h 58 % 0 in /  0.0 mm
11:58 82.2 °F /  27.9 °C 65.5 °F /  18.6 °C 29.9 in /  1011.7 hPa SE 6.9 mph /  11.1 km/h 6.9 mph /  11.1 km/h 57 % 0 in /  0.0 mm
12:03 82.6 °F /  28.1 °C 65.3 °F /  18.5 °C 29.9 in /  1011.7 hPa East 3.5 mph /  5.6 km/h 3.5 mph /  5.6 km/h 56 % 0 in /  0.0 mm
12:08 82.4 °F /  28.0 °C 64.6 °F /  18.1 °C 29.9 in /  1011.7 hPa NE 5.8 mph /  9.3 km/h 5.8 mph /  9.3 km/h 55 % 0 in /  0.0 mm
12:13 82.2 °F /  27.9 °C 64.4 °F /  18.0 °C 29.9 in /  1011.7 hPa East 3.5 mph /  5.6 km/h 3.5 mph /  5.6 km/h 55 % 0 in /  0.0 mm
12:18 82 °F /  27.8 °C 64.2 °F /  17.9 °C 29.9 in /  1011.7 hPa ENE 4.7 mph /  7.6 km/h 4.7 mph /  7.6 km/h 55 % 0 in /  0.0 mm
12:23 82.8 °F /  28.2 °C 64.4 °F /  18.0 °C 29.9 in /  1011.7 hPa ESE 3.5 mph /  5.6 km/h 3.5 mph /  5.6 km/h 54 % 0 in /  0.0 mm
12:28 82.8 °F /  28.2 °C 64.4 °F /  18.0 °C 29.9 in /  1011.7 hPa ESE 9.2 mph /  14.8 km/h 9.2 mph /  14.8 km/h 54 % 0 in /  0.0 mm
12:33 82.6 °F /  28.1 °C 64.2 °F /  17.9 °C 29.9 in /  1011.7 hPa NE 6.9 mph /  11.1 km/h 6.9 mph /  11.1 km/h 54 % 0 in /  0.0 mm
12:38 83.5 °F /  28.6 °C 65.1 °F /  18.4 °C 29.9 in /  1011.7 hPa ESE 10.4 mph /  16.7 km/h 10.4 mph /  16.7 km/h 54 % 0 in /  0.0 mm
12:43 83.5 °F /  28.6 °C 65.1 °F /  18.4 °C 29.9 in /  1011.7 hPa ESE 8.1 mph /  13.0 km/h 8.1 mph /  13.0 km/h 54 % 0 in /  0.0 mm
12:48 83.7 °F /  28.7 °C 64.8 °F /  18.2 °C 29.9 in /  1011.7 hPa East 11.5 mph /  18.5 km/h 11.5 mph /  18.5 km/h 53 % 0 in /  0.0 mm
12:53 83.3 °F /  28.5 °C 64.4 °F /  18.0 °C 29.9 in /  1011.7 hPa East 16.1 mph /  25.9 km/h 16.1 mph /  25.9 km/h 53 % 0 in /  0.0 mm
12:58 83.7 °F /  28.7 °C 64.8 °F /  18.2 °C 29.9 in /  1011.7 hPa ESE 9.2 mph /  14.8 km/h 9.2 mph /  14.8 km/h 53 % 0 in /  0.0 mm
13:03 84 °F /  28.9 °C 64.6 °F /  18.1 °C 29.9 in /  1011.7 hPa SSE 12.7 mph /  20.4 km/h 12.7 mph /  20.4 km/h 52 % 0 in /  0.0 mm
13:08 84.2 °F /  29.0 °C 64 °F /  17.8 °C 29.9 in /  1011.7 hPa ESE 6.9 mph /  11.1 km/h 6.9 mph /  11.1 km/h 51 % 0 in /  0.0 mm
13:13 83.8 °F /  28.8 °C 64.2 °F /  17.9 °C 29.9 in /  1011.7 hPa ESE 10.2 mph /  16.4 km/h 10.2 mph /  16.4 km/h 52 % 0 in /  0.0 mm
13:18 83.7 °F /  28.7 °C 64.2 °F /  17.9 °C 29.9 in /  1011.7 hPa ESE 8.5 mph /  13.7 km/h 8.5 mph /  13.7 km/h 52 % 0 in /  0.0 mm
13:23 83.7 °F /  28.7 °C 64.2 °F /  17.9 °C 29.9 in /  1011.7 hPa East 10.4 mph /  16.7 km/h 10.4 mph /  16.7 km/h 52 % 0 in /  0.0 mm
13:28 83.8 °F /  28.8 °C 64.2 °F /  17.9 °C 29.9 in /  1011.7 hPa East 12.7 mph /  20.4 km/h 12.7 mph /  20.4 km/h 52 % 0 in /  0.0 mm
13:33 84 °F /  28.9 °C 64.6 °F /  18.1 °C 29.9 in /  1011.7 hPa East 10.4 mph /  16.7 km/h 10.4 mph /  16.7 km/h 52 % 0 in /  0.0 mm
13:38 83.8 °F /  28.8 °C 63.9 °F /  17.7 °C 29.9 in /  1011.7 hPa South 12.7 mph /  20.4 km/h 12.7 mph /  20.4 km/h 51 % 0 in /  0.0 mm
13:43 85.8 °F /  29.9 °C 64.6 °F /  18.1 °C 29.9 in /  1011.7 hPa WNW 4.6 mph /  7.4 km/h 4.6 mph /  7.4 km/h 49 % 0 in /  0.0 mm
13:48 88 °F /  31.1 °C 64 °F /  17.8 °C 29.9 in /  1011.7 hPa SW 3.5 mph /  5.6 km/h 3.5 mph /  5.6 km/h 45 % 0 in /  0.0 mm
13:53 87.4 °F /  30.8 °C 64.8 °F /  18.2 °C 29.8 in /  1010.7 hPa East 5.8 mph /  9.3 km/h 5.8 mph /  9.3 km/h 47 % 0 in /  0.0 mm
13:58 86.4 °F /  30.2 °C 63.9 °F /  17.7 °C 29.8 in /  1010.7 hPa ESE 10.4 mph /  16.7 km/h 10.4 mph /  16.7 km/h 47 % 0 in /  0.0 mm
14:03 85.6 °F /  29.8 °C 63.7 °F /  17.6 °C 29.8 in /  1010.7 hPa ESE 10.5 mph /  16.9 km/h 10.5 mph /  16.9 km/h 48 % 0 in /  0.0 mm
14:08 85.5 °F /  29.7 °C 63.5 °F /  17.5 °C 29.9 in /  1011.7 hPa SSE 11.5 mph /  18.5 km/h 11.5 mph /  18.5 km/h 48 % 0 in /  0.0 mm
14:13 86.5 °F /  30.3 °C 63.9 °F /  17.7 °C 29.9 in /  1011.7 hPa SSE 10.4 mph /  16.7 km/h 10.4 mph /  16.7 km/h 47 % 0 in /  0.0 mm
14:18 87.3 °F /  30.7 °C 65.1 °F /  18.4 °C 29.9 in /  1011.7 hPa East 7.6 mph /  12.2 km/h 7.6 mph /  12.2 km/h 48 % 0 in /  0.0 mm
14:23 86.5 °F /  30.3 °C 63.9 °F /  17.7 °C 29.8 in /  1010.7 hPa ESE 10.4 mph /  16.7 km/h 10.4 mph /  16.7 km/h 47 % 0 in /  0.0 mm
14:28 88.2 °F /  31.2 °C 64 °F /  17.8 °C 29.8 in /  1010.7 hPa SW 3.5 mph /  5.6 km/h 3.5 mph /  5.6 km/h 45 % 0 in /  0.0 mm
14:33 89.1 °F /  31.7 °C 64.2 °F /  17.9 °C 29.8 in /  1010.7 hPa South 6.9 mph /  11.1 km/h 6.9 mph /  11.1 km/h 44 % 0 in /  0.0 mm
14:38 86.9 °F /  30.5 °C 64.2 °F /  17.9 °C 29.8 in /  1010.7 hPa East 6.9 mph /  11.1 km/h 6.9 mph /  11.1 km/h 47 % 0 in /  0.0 mm
14:43 87.8 °F /  31.0 °C 63.1 °F /  17.3 °C 29.8 in /  1010.7 hPa SW 9.2 mph /  14.8 km/h 9.2 mph /  14.8 km/h 44 % 0 in /  0.0 mm
14:48 89.4 °F /  31.9 °C 63.3 °F /  17.4 °C 29.8 in /  1010.7 hPa SW 5.8 mph /  9.3 km/h 5.8 mph /  9.3 km/h 42 % 0 in /  0.0 mm
14:53 90.5 °F /  32.5 °C 63.7 °F /  17.6 °C 29.8 in /  1010.7 hPa SW 5.6 mph /  9.0 km/h 5.6 mph /  9.0 km/h 41 % 0 in /  0.0 mm
14:58 90.3 °F /  32.4 °C 63.3 °F /  17.4 °C 29.8 in /  1010.7 hPa SSW 5.8 mph /  9.3 km/h 5.8 mph /  9.3 km/h 41 % 0 in /  0.0 mm
15:03 90.5 °F /  32.5 °C 63 °F /  17.2 °C 29.8 in /  1010.7 hPa WSW 6.9 mph /  11.1 km/h 6.9 mph /  11.1 km/h 40 % 0 in /  0.0 mm
15:08 90.5 °F /  32.5 °C 63 °F /  17.2 °C 29.8 in /  1010.7 hPa WNW 5.8 mph /  9.3 km/h 5.8 mph /  9.3 km/h 40 % 0 in /  0.0 mm
15:13 90.5 °F /  32.5 °C 62.2 °F /  16.8 °C 29.8 in /  1010.7 hPa SW 9.2 mph /  14.8 km/h 9.2 mph /  14.8 km/h 39 % 0 in /  0.0 mm
15:18 89.8 °F /  32.1 °C 61.5 °F /  16.4 °C 29.8 in /  1010.7 hPa SSW 7.1 mph /  11.4 km/h 7.1 mph /  11.4 km/h 39 % 0 in /  0.0 mm
15:23 90.7 °F /  32.6 °C 62.2 °F /  16.8 °C 29.8 in /  1010.7 hPa SW 7.4 mph /  11.9 km/h 7.4 mph /  11.9 km/h 39 % 0 in /  0.0 mm
15:28 90.3 °F /  32.4 °C 61.3 °F /  16.3 °C 29.8 in /  1010.7 hPa SW 5.8 mph /  9.3 km/h 6.4 mph /  10.3 km/h 38 % 0 in /  0.0 mm
15:33 90.3 °F /  32.4 °C 61.3 °F /  16.3 °C 29.8 in /  1010.7 hPa SSW 6.9 mph /  11.1 km/h 6.9 mph /  11.1 km/h 38 % 0 in /  0.0 mm
15:38 89.8 °F /  32.1 °C 60.8 °F /  16.0 °C 29.8 in /  1010.7 hPa SSE 8.1 mph /  13.0 km/h 8.1 mph /  13.0 km/h 38 % 0 in /  0.0 mm
15:43 90.3 °F /  32.4 °C 60.4 °F /  15.8 °C 29.8 in /  1010.7 hPa South 4.6 mph /  7.4 km/h 4.6 mph /  7.4 km/h 37 % 0 in /  0.0 mm
15:48 91.8 °F /  33.2 °C 61.9 °F /  16.6 °C 29.8 in /  1010.7 hPa SSW 8.1 mph /  13.0 km/h 8.1 mph /  13.0 km/h 37 % 0 in /  0.0 mm
15:53 89.8 °F /  32.1 °C 60.1 °F /  15.6 °C 29.8 in /  1010.7 hPa West 2.3 mph /  3.7 km/h 3.1 mph /  5.0 km/h 37 % 0 in /  0.0 mm
15:58 89.6 °F /  32.0 °C 59.9 °F /  15.5 °C 29.8 in /  1010.7 hPa SSW 5.8 mph /  9.3 km/h 5.8 mph /  9.3 km/h 37 % 0 in /  0.0 mm
16:03 90.1 °F /  32.3 °C 60.4 °F /  15.8 °C 29.8 in /  1010.7 hPa SW 5.9 mph /  9.5 km/h 5.9 mph /  9.5 km/h 37 % 0 in /  0.0 mm
16:08 90.3 °F /  32.4 °C 59.7 °F /  15.4 °C 29.8 in /  1010.7 hPa SW 9.2 mph /  14.8 km/h 9.2 mph /  14.8 km/h 36 % 0 in /  0.0 mm
16:13 90.7 °F /  32.6 °C 60.1 °F /  15.6 °C 29.8 in /  1010.7 hPa West 5.9 mph /  9.5 km/h 5.9 mph /  9.5 km/h 36 % 0 in /  0.0 mm
16:18 89.8 °F /  32.1 °C 57.7 °F /  14.3 °C 29.8 in /  1010.7 hPa South 10.4 mph /  16.7 km/h 10.4 mph /  16.7 km/h 34 % 0 in /  0.0 mm
16:23 89.6 °F /  32.0 °C 58.3 °F /  14.6 °C 29.8 in /  1010.7 hPa SW 7.1 mph /  11.4 km/h 7.1 mph /  11.4 km/h 35 % 0 in /  0.0 mm
16:28 90 °F /  32.2 °C 58.6 °F /  14.8 °C 29.8 in /  1010.7 hPa WSW 4.6 mph /  7.4 km/h 4.7 mph /  7.6 km/h 35 % 0 in /  0.0 mm
16:33 90.3 °F /  32.4 °C 59 °F /  15.0 °C 29.8 in /  1010.7 hPa WSW 8.1 mph /  13.0 km/h 8.1 mph /  13.0 km/h 35 % 0 in /  0.0 mm
16:38 90 °F /  32.2 °C 58.6 °F /  14.8 °C 29.8 in /  1010.0 hPa ESE 5.8 mph /  9.3 km/h 5.8 mph /  9.3 km/h 35 % 0 in /  0.0 mm
16:43 90 °F /  32.2 °C 58.6 °F /  14.8 °C 29.8 in /  1010.0 hPa West 4.6 mph /  7.4 km/h 4.6 mph /  7.4 km/h 35 % 0 in /  0.0 mm
16:48 90.1 °F /  32.3 °C 58.8 °F /  14.9 °C 29.8 in /  1010.0 hPa SW 4.3 mph /  6.9 km/h 4.3 mph /  6.9 km/h 35 % 0 in /  0.0 mm
16:53 89.1 °F /  31.7 °C 57 °F /  13.9 °C 29.8 in /  1010.0 hPa South 9.2 mph /  14.8 km/h 9.2 mph /  14.8 km/h 34 % 0 in /  0.0 mm
16:58 88.9 °F /  31.6 °C 57.7 °F /  14.3 °C 29.8 in /  1010.0 hPa West 9 mph /  14.5 km/h 9 mph /  14.5 km/h 35 % 0 in /  0.0 mm
17:03 88.5 °F /  31.4 °C 57.4 °F /  14.1 °C 29.8 in /  1010.0 hPa WSW 8.1 mph /  13.0 km/h 8.1 mph /  13.0 km/h 35 % 0 in /  0.0 mm
17:08 88.5 °F /  31.4 °C 57.4 °F /  14.1 °C 29.8 in /  1010.7 hPa SW 4.6 mph /  7.4 km/h 4.6 mph /  7.4 km/h 35 % 0 in /  0.0 mm
17:13 88.2 °F /  31.2 °C 56.3 °F /  13.5 °C 29.8 in /  1010.7 hPa SW 5.9 mph /  9.5 km/h 5.9 mph /  9.5 km/h 34 % 0 in /  0.0 mm
17:18 88.3 °F /  31.3 °C 56.5 °F /  13.6 °C 29.8 in /  1010.7 hPa South 9.2 mph /  14.8 km/h 9.2 mph /  14.8 km/h 34 % 0 in /  0.0 mm
17:23 88.2 °F /  31.2 °C 57 °F /  13.9 °C 29.8 in /  1010.0 hPa West 8.5 mph /  13.7 km/h 8.5 mph /  13.7 km/h 35 % 0 in /  0.0 mm
17:28 88.9 °F /  31.6 °C 57.7 °F /  14.3 °C 29.8 in /  1010.0 hPa SSW 10.4 mph /  16.7 km/h 10.4 mph /  16.7 km/h 35 % 0 in /  0.0 mm
17:33 87.8 °F /  31.0 °C 55.9 °F /  13.3 °C 29.8 in /  1010.0 hPa WSW 12.7 mph /  20.4 km/h 12.7 mph /  20.4 km/h 34 % 0 in /  0.0 mm
17:38 88.2 °F /  31.2 °C 56.3 °F /  13.5 °C 29.8 in /  1010.0 hPa SSW 6.9 mph /  11.1 km/h 6.9 mph /  11.1 km/h 34 % 0 in /  0.0 mm
17:43 88.5 °F /  31.4 °C 56.7 °F /  13.7 °C 29.8 in /  1010.0 hPa SW 6.9 mph /  11.1 km/h 6.9 mph /  11.1 km/h 34 % 0 in /  0.0 mm
17:48 88.2 °F /  31.2 °C 56.3 °F /  13.5 °C 29.8 in /  1010.0 hPa SW 6.9 mph /  11.1 km/h 6.9 mph /  11.1 km/h 34 % 0 in /  0.0 mm
17:53 88.7 °F /  31.5 °C 56.7 °F /  13.7 °C 29.8 in /  1010.0 hPa SW 8.5 mph /  13.7 km/h 8.5 mph /  13.7 km/h 34 % 0 in /  0.0 mm
17:58 88.2 °F /  31.2 °C 56.3 °F /  13.5 °C 29.8 in /  1010.0 hPa SW 5.6 mph /  9.0 km/h 5.6 mph /  9.0 km/h 34 % 0 in /  0.0 mm
18:03 88 °F /  31.1 °C 56.1 °F /  13.4 °C 29.8 in /  1010.0 hPa SSW 5.8 mph /  9.3 km/h 5.8 mph /  9.3 km/h 34 % 0 in /  0.0 mm
18:08 86.9 °F /  30.5 °C 54.3 °F /  12.4 °C 29.8 in /  1010.0 hPa SW 10.4 mph /  16.7 km/h 10.4 mph /  16.7 km/h 33 % 0 in /  0.0 mm
18:13 86.7 °F /  30.4 °C 55 °F /  12.8 °C 29.8 in /  1010.0 hPa SW 5.9 mph /  9.5 km/h 5.9 mph /  9.5 km/h 34 % 0 in /  0.0 mm
18:18 86.2 °F /  30.1 °C 54.5 °F /  12.5 °C 29.8 in /  1010.0 hPa South 5.9 mph /  9.5 km/h 5.9 mph /  9.5 km/h 34 % 0 in /  0.0 mm
18:23 86.2 °F /  30.1 °C 54.5 °F /  12.5 °C 29.8 in /  1010.0 hPa SW 3.5 mph /  5.6 km/h 3.5 mph /  5.6 km/h 34 % 0 in /  0.0 mm
18:28 86 °F /  30.0 °C 55.2 °F /  12.9 °C 29.8 in /  1010.0 hPa SW 3.5 mph /  5.6 km/h 3.5 mph /  5.6 km/h 35 % 0 in /  0.0 mm
18:33 85.6 °F /  29.8 °C 54.9 °F /  12.7 °C 29.8 in /  1010.0 hPa South 2.3 mph /  3.7 km/h 2.4 mph /  3.9 km/h 35 % 0 in /  0.0 mm
18:38 85.8 °F /  29.9 °C 55.8 °F /  13.2 °C 29.8 in /  1010.0 hPa SSW 1.2 mph /  1.9 km/h   36 % 0 in /  0.0 mm
18:43 85.5 °F /  29.7 °C 55.6 °F /  13.1 °C 29.8 in /  1010.0 hPa WSW 4.6 mph /  7.4 km/h 4.6 mph /  7.4 km/h 36 % 0 in /  0.0 mm
18:48 84.7 °F /  29.3 °C 54.9 °F /  12.7 °C 29.8 in /  1010.0 hPa WSW 3.5 mph /  5.6 km/h 3.5 mph /  5.6 km/h 36 % 0 in /  0.0 mm
18:53 84.7 °F /  29.3 °C 54.9 °F /  12.7 °C 29.8 in /  1010.0 hPa SW 4.6 mph /  7.4 km/h 4.6 mph /  7.4 km/h 36 % 0 in /  0.0 mm
18:58 84.4 °F /  29.1 °C 55.2 °F /  12.9 °C 29.8 in /  1010.0 hPa SW 6.9 mph /  11.1 km/h 6.9 mph /  11.1 km/h 37 % 0 in /  0.0 mm
19:03 84.2 °F /  29.0 °C 55 °F /  12.8 °C 29.8 in /  1010.0 hPa SW 4.6 mph /  7.4 km/h 4.6 mph /  7.4 km/h 37 % 0 in /  0.0 mm
19:08 84 °F /  28.9 °C 55.8 °F /  13.2 °C 29.8 in /  1010.7 hPa SSW 3.6 mph /  5.8 km/h 3.6 mph /  5.8 km/h 38 % 0 in /  0.0 mm
19:13 83.7 °F /  28.7 °C 56.1 °F /  13.4 °C 29.8 in /  1010.7 hPa West 5.8 mph /  9.3 km/h 5.8 mph /  9.3 km/h 39 % 0 in /  0.0 mm
19:18 83.1 °F /  28.4 °C 55.6 °F /  13.1 °C 29.8 in /  1010.7 hPa SSW 5.9 mph /  9.5 km/h 5.9 mph /  9.5 km/h 39 % 0 in /  0.0 mm
19:23 82.8 °F /  28.2 °C 55.9 °F /  13.3 °C 29.8 in /  1010.7 hPa West 5.8 mph /  9.3 km/h 5.8 mph /  9.3 km/h 40 % 0 in /  0.0 mm
19:28 82.4 °F /  28.0 °C 55.8 °F /  13.2 °C 29.8 in /  1010.7 hPa WSW 4.3 mph /  6.9 km/h 4.3 mph /  6.9 km/h 40 % 0 in /  0.0 mm
19:33 81.9 °F /  27.7 °C 55.9 °F /  13.3 °C 29.8 in /  1010.7 hPa WSW 8.1 mph /  13.0 km/h 8.1 mph /  13.0 km/h 41 % 0 in /  0.0 mm
19:38 81.3 °F /  27.4 °C 55.4 °F /  13.0 °C 29.8 in /  1010.7 hPa WSW 9.2 mph /  14.8 km/h 9.2 mph /  14.8 km/h 41 % 0 in /  0.0 mm
19:43 81.3 °F /  27.4 °C 55.4 °F /  13.0 °C 29.8 in /  1010.7 hPa South 8.1 mph /  13.0 km/h 8.1 mph /  13.0 km/h 41 % 0 in /  0.0 mm
19:48 81 °F /  27.2 °C 55 °F /  12.8 °C 29.8 in /  1010.7 hPa WSW 5.8 mph /  9.3 km/h 5.8 mph /  9.3 km/h 41 % 0 in /  0.0 mm
19:53 80.6 °F /  27.0 °C 54.7 °F /  12.6 °C 29.9 in /  1011.7 hPa WSW 8.1 mph /  13.0 km/h 8.1 mph /  13.0 km/h 41 % 0 in /  0.0 mm
19:58 80.2 °F /  26.8 °C 55 °F /  12.8 °C 29.9 in /  1011.7 hPa WSW 8.1 mph /  13.0 km/h 8.1 mph /  13.0 km/h 42 % 0 in /  0.0 mm
20:00 73.2 °F /  22.9 °C 61.5 °F /  16.4 °C 29.9 in /  1013.8 hPa NE 1 mph /  1.6 km/h 2 mph /  3.2 km/h 67 % 0 in /  0.0 mm
20:03 80.1 °F /  26.7 °C 54.9 °F /  12.7 °C 29.9 in /  1011.7 hPa WSW 5.8 mph /  9.3 km/h 5.8 mph /  9.3 km/h 42 % 0 in /  0.0 mm
20:08 79.9 °F /  26.6 °C 54.7 °F /  12.6 °C 29.9 in /  1011.7 hPa SW 5.8 mph /  9.3 km/h 5.8 mph /  9.3 km/h 42 % 0 in /  0.0 mm
20:10 73 °F /  22.8 °C 61.9 °F /  16.6 °C 29.9 in /  1013.8 hPa NE 2 mph /  3.2 km/h 4 mph /  6.4 km/h 68 % 0 in /  0.0 mm
20:13 79.7 °F /  26.5 °C 55.2 °F /  12.9 °C 29.9 in /  1011.7 hPa SW 4 mph /  6.4 km/h 4 mph /  6.4 km/h 43 % 0 in /  0.0 mm
20:18 79.7 °F /  26.5 °C 55.2 °F /  12.9 °C 29.9 in /  1011.7 hPa West 6.9 mph /  11.1 km/h 6.9 mph /  11.1 km/h 43 % 0 in /  0.0 mm
20:20 72.9 °F /  22.7 °C 61.7 °F /  16.5 °C 29.9 in /  1013.8 hPa NE 2 mph /  3.2 km/h 2 mph /  3.2 km/h 68 % 0 in /  0.0 mm
20:23 79.9 °F /  26.6 °C 55.4 °F /  13.0 °C 29.9 in /  1011.7 hPa SSW 4.6 mph /  7.4 km/h 4.6 mph /  7.4 km/h 43 % 0 in /  0.0 mm
20:28 80.1 °F /  26.7 °C 56.1 °F /  13.4 °C 29.9 in /  1011.7 hPa SW 3.6 mph /  5.8 km/h 3.6 mph /  5.8 km/h 44 % 0 in /  0.0 mm
20:30 72.7 °F /  22.6 °C 61.9 °F /  16.6 °C 29.9 in /  1013.8 hPa NNE 2 mph /  3.2 km/h 3 mph /  4.8 km/h 69 % 0 in /  0.0 mm
20:33 79.7 °F /  26.5 °C 55.9 °F /  13.3 °C 29.9 in /  1011.7 hPa SW 3.5 mph /  5.6 km/h 3.5 mph /  5.6 km/h 44 % 0 in /  0.0 mm
20:38 79.7 °F /  26.5 °C 55.9 °F /  13.3 °C 29.9 in /  1011.7 hPa WSW 4.6 mph /  7.4 km/h 4.6 mph /  7.4 km/h 44 % 0 in /  0.0 mm
20:40 72.5 °F /  22.5 °C 62.2 °F /  16.8 °C 29.9 in /  1013.8 hPa NNE 2 mph /  3.2 km/h 3 mph /  4.8 km/h 70 % 0 in /  0.0 mm
20:43 79.7 °F /  26.5 °C 55.9 °F /  13.3 °C 29.9 in /  1011.7 hPa SW 3.8 mph /  6.1 km/h 3.8 mph /  6.1 km/h 44 % 0 in /  0.0 mm
20:48 79.3 °F /  26.3 °C 55.6 °F /  13.1 °C 29.9 in /  1011.7 hPa South 5.8 mph /  9.3 km/h 5.8 mph /  9.3 km/h 44 % 0 in /  0.0 mm
20:50 72.3 °F /  22.4 °C 62.1 °F /  16.7 °C 29.9 in /  1013.8 hPa NNE 2 mph /  3.2 km/h 3 mph /  4.8 km/h 70 % 0 in /  0.0 mm
20:53 79.2 °F /  26.2 °C 55.4 °F /  13.0 °C 29.9 in /  1011.7 hPa West 4.6 mph /  7.4 km/h 4.6 mph /  7.4 km/h 44 % 0 in /  0.0 mm
20:58 79 °F /  26.1 °C 55.2 °F /  12.9 °C 29.9 in /  1011.7 hPa SW 3.1 mph /  5.0 km/h 3.1 mph /  5.0 km/h 44 % 0 in /  0.0 mm
21:00 72.3 °F /  22.4 °C 62.8 °F /  17.1 °C 29.9 in /  1013.8 hPa NE 2 mph /  3.2 km/h 3 mph /  4.8 km/h 72 % 0 in /  0.0 mm
21:03 79 °F /  26.1 °C 55.2 °F /  12.9 °C 29.9 in /  1011.7 hPa SW 1.2 mph /  1.9 km/h 1.2 mph /  1.9 km/h 44 % 0 in /  0.0 mm
21:08 78.8 °F /  26.0 °C 55.8 °F /  13.2 °C 29.9 in /  1011.7 hPa SW 1.2 mph /  1.9 km/h 1.2 mph /  1.9 km/h 45 % 0 in /  0.0 mm
21:10 72.1 °F /  22.3 °C 63 °F /  17.2 °C 29.9 in /  1013.8 hPa NE 2 mph /  3.2 km/h 3 mph /  4.8 km/h 73 % 0 in /  0.0 mm
21:13 78.6 °F /  25.9 °C 55.6 °F /  13.1 °C 29.9 in /  1011.7 hPa SSW 3.5 mph /  5.6 km/h 3.5 mph /  5.6 km/h 45 % 0 in /  0.0 mm
21:18 78.3 °F /  25.7 °C 55.2 °F /  12.9 °C 29.9 in /  1011.7 hPa SW 3.5 mph /  5.6 km/h 3.5 mph /  5.6 km/h 45 % 0 in /  0.0 mm
21:20 72 °F /  22.2 °C 62.8 °F /  17.1 °C 29.9 in /  1013.8 hPa NE 2 mph /  3.2 km/h 4 mph /  6.4 km/h 73 % 0 in /  0.0 mm
21:23 78.1 °F /  25.6 °C 55 °F /  12.8 °C 29.9 in /  1011.7 hPa SW 2.4 mph /  3.9 km/h 2.4 mph /  3.9 km/h 45 % 0 in /  0.0 mm
21:28 77.9 °F /  25.5 °C 54.9 °F /  12.7 °C 29.9 in /  1011.7 hPa West 2.3 mph /  3.7 km/h 2.3 mph /  3.7 km/h 45 % 0 in /  0.0 mm
21:30 72.1 °F /  22.3 °C 62.6 °F /  17.0 °C 29.9 in /  1013.8 hPa NE 2 mph /  3.2 km/h 3 mph /  4.8 km/h 72 % 0 in /  0.0 mm
21:33 77.7 °F /  25.4 °C 54.7 °F /  12.6 °C 29.9 in /  1011.7 hPa Calm     45 % 0 in /  0.0 mm
21:39 77.5 °F /  25.3 °C 54.5 °F /  12.5 °C 29.9 in /  1012.8 hPa Calm     45 % 0 in /  0.0 mm
21:40 72.1 °F /  22.3 °C 62.6 °F /  17.0 °C 29.9 in /  1013.8 hPa NE 2 mph /  3.2 km/h 5 mph /  8.0 km/h 72 % 0 in /  0.0 mm
21:44 77.4 °F /  25.2 °C 54.3 °F /  12.4 °C 29.9 in /  1012.8 hPa West 2.3 mph /  3.7 km/h 2.3 mph /  3.7 km/h 45 % 0 in /  0.0 mm
21:49 77.2 °F /  25.1 °C 54.9 °F /  12.7 °C 29.9 in /  1012.8 hPa West 2.2 mph /  3.5 km/h   46 % 0 in /  0.0 mm
21:50 72 °F /  22.2 °C 62.8 °F /  17.1 °C 29.9 in /  1013.8 hPa NE 2 mph /  3.2 km/h 4 mph /  6.4 km/h 73 % 0 in /  0.0 mm
21:54 77 °F /  25.0 °C 54.7 °F /  12.6 °C 29.9 in /  1011.7 hPa SW 2.3 mph /  3.7 km/h 2.3 mph /  3.7 km/h 46 % 0 in /  0.0 mm
21:59 76.8 °F /  24.9 °C 55 °F /  12.8 °C 29.9 in /  1011.7 hPa SW 1.2 mph /  1.9 km/h 1.2 mph /  1.9 km/h 47 % 0 in /  0.0 mm
22:00 71.8 °F /  22.1 °C 63 °F /  17.2 °C 29.9 in /  1013.8 hPa ENE 1 mph /  1.6 km/h 4 mph /  6.4 km/h 74 % 0 in /  0.0 mm
22:04 76.5 °F /  24.7 °C 54.7 °F /  12.6 °C 29.9 in /  1011.7 hPa Calm     47 % 0 in /  0.0 mm
22:09 76.3 °F /  24.6 °C 55 °F /  12.8 °C 29.9 in /  1011.7 hPa Calm     48 % 0 in /  0.0 mm
22:10 71.6 °F /  22.0 °C 63 °F /  17.2 °C 29.9 in /  1013.8 hPa ENE 3 mph /  4.8 km/h 3 mph /  4.8 km/h 74 % 0 in /  0.0 mm
22:14 76.3 °F /  24.6 °C 55 °F /  12.8 °C 29.9 in /  1011.7 hPa Calm     48 % 0 in /  0.0 mm
22:19 76.1 °F /  24.5 °C 55 °F /  12.8 °C 29.9 in /  1011.7 hPa Calm     48 % 0 in /  0.0 mm
22:20 71.4 °F /  21.9 °C 63.1 °F /  17.3 °C 30 in /  1014.8 hPa NE 2 mph /  3.2 km/h 3 mph /  4.8 km/h 75 % 0 in /  0.0 mm
22:24 75.9 °F /  24.4 °C 55.4 °F /  13.0 °C 29.9 in /  1012.8 hPa Calm     49 % 0 in /  0.0 mm
22:29 75.9 °F /  24.4 °C 55.4 °F /  13.0 °C 29.9 in /  1012.8 hPa Calm     49 % 0 in /  0.0 mm
22:30 71.2 °F /  21.8 °C 63 °F /  17.2 °C 29.9 in /  1013.8 hPa NE 2 mph /  3.2 km/h 3 mph /  4.8 km/h 75 % 0 in /  0.0 mm
22:34 75.7 °F /  24.3 °C 55.2 °F /  12.9 °C 29.9 in /  1012.8 hPa Calm     49 % 0 in /  0.0 mm
22:39 75.7 °F /  24.3 °C 55.2 °F /  12.9 °C 29.9 in /  1013.8 hPa NNE 1.4 mph /  2.3 km/h   49 % 0 in /  0.0 mm
22:40 71.1 °F /  21.7 °C 63.1 °F /  17.3 °C 29.9 in /  1013.8 hPa ENE 1 mph /  1.6 km/h 2 mph /  3.2 km/h 76 % 0 in /  0.0 mm
22:44 75.9 °F /  24.4 °C 55.4 °F /  13.0 °C 29.9 in /  1013.8 hPa NNE 3.5 mph /  5.6 km/h 3.5 mph /  5.6 km/h 49 % 0 in /  0.0 mm
22:45 75.9 °F /  24.4 °C 55.4 °F /  13.0 °C 29.9 in /  1013.8 hPa NNE 1.2 mph /  1.9 km/h   49 % 0 in /  0.0 mm
22:50 75.7 °F /  24.3 °C 55.2 °F /  12.9 °C 29.9 in /  1013.8 hPa NNE 2.3 mph /  3.7 km/h 2.3 mph /  3.7 km/h 49 % 0 in /  0.0 mm
22:55 75.7 °F /  24.3 °C 55.2 °F /  12.9 °C 29.9 in /  1013.8 hPa NE 2.3 mph /  3.7 km/h 2.3 mph /  3.7 km/h 49 % 0 in /  0.0 mm
23:00 75.7 °F /  24.3 °C 55.8 °F /  13.2 °C 29.9 in /  1013.8 hPa NE 1.2 mph /  1.9 km/h 1.2 mph /  1.9 km/h 50 % 0 in /  0.0 mm
23:05 75.6 °F /  24.2 °C 55.6 °F /  13.1 °C 29.9 in /  1013.8 hPa Calm     50 % 0 in /  0.0 mm
23:10 75.4 °F /  24.1 °C 55.4 °F /  13.0 °C 29.9 in /  1013.8 hPa Calm     50 % 0 in /  0.0 mm
23:15 75.4 °F /  24.1 °C 55.9 °F /  13.3 °C 29.9 in /  1013.8 hPa North 2.3 mph /  3.7 km/h 2.3 mph /  3.7 km/h 51 % 0 in /  0.0 mm
23:20 75.4 °F /  24.1 °C 55.9 °F /  13.3 °C 29.9 in /  1013.8 hPa NNE 2.3 mph /  3.7 km/h 2.3 mph /  3.7 km/h 51 % 0 in /  0.0 mm
23:25 75.2 °F /  24.0 °C 56.8 °F /  13.8 °C 29.9 in /  1013.8 hPa NE 1.6 mph /  2.6 km/h 1.6 mph /  2.6 km/h 53 % 0 in /  0.0 mm
23:30 75.2 °F /  24.0 °C 56.8 °F /  13.8 °C 29.9 in /  1013.8 hPa NNE 2.3 mph /  3.7 km/h 2.3 mph /  3.7 km/h 53 % 0 in /  0.0 mm
23:35 75 °F /  23.9 °C 58.3 °F /  14.6 °C 29.9 in /  1013.8 hPa NNE 1.2 mph /  1.9 km/h   56 % 0 in /  0.0 mm
23:40 74.8 °F /  23.8 °C 58.6 °F /  14.8 °C 29.9 in /  1013.8 hPa NE 2.3 mph /  3.7 km/h 2.3 mph /  3.7 km/h 57 % 0 in /  0.0 mm
23:45 74.8 °F /  23.8 °C 59.2 °F /  15.1 °C 29.9 in /  1013.8 hPa NE 2.3 mph /  3.7 km/h 2.3 mph /  3.7 km/h 58 % 0 in /  0.0 mm
23:50 74.7 °F /  23.7 °C 59.4 °F /  15.2 °C 29.9 in /  1013.8 hPa Calm     59 % 0 in /  0.0 mm
23:55 74.5 °F /  23.6 °C 59.7 °F /  15.4 °C 29.9 in /  1013.8 hPa NE 2.3 mph /  3.7 km/h 2.3 mph /  3.7 km/h 60 % 0 in /  0.0 mm
Meteo Sesrovires
Elogis d' Weather Underground - 3.75 mb

Guio original per  Jim McMurry - jmcmurry@mwt.net Adaptat per a la plantilla per  Wim van der Kuil - Leuven-Template.eu

Trobareu la nostra informacio del temps tambe a:

Weather Underground

AWEKAS